EIN5MW EIDW-LFLL
Flight info
| Callsign | EIN5MW |
|---|---|
| Flight time | N/A |
| Altitude | 37000 |
| Route | PESIT4E PESIT DCT BAKUR DCT GUBJE DCT DAVAZ DCT AVZAC DCT ICOSA DCT RUHUN DCT UNZIB DCT NUCHU L18 MID UL612 OGULO DCT OKASI DCT OKEKO DCT OKEPI DCT MOU A3 FEDZI |
| Aircraft | A320/M-SDE3FGHIRWY/LB1 |
Departure
| Time | N/A |
|---|---|
| Airport | Dublin Airport (EIDW) |
Arrival
| Time | 2026-04-28 18:54 |
|---|---|
| Airport | Lyon Saint-Exupéry Airport (LFLL) |
| Time | Latitude | Longitude | Altitude | Speed | Heading |
|---|---|---|---|---|---|
| 2026-04-28 18:01 | 50.05510 | 0.41802 | 34111 ft | 451 kts | 159° |
| 2026-04-28 18:01 | 50.00487 | 0.46933 | 34109 ft | 451 kts | 159° |
| 2026-04-28 18:02 | 49.95319 | 0.52199 | 34108 ft | 451 kts | 159° |
| 2026-04-28 18:02 | 49.90205 | 0.57395 | 34105 ft | 451 kts | 159° |
| 2026-04-28 18:03 | 49.85010 | 0.62851 | 34100 ft | 457 kts | 155° |
| 2026-04-28 18:03 | 49.80042 | 0.69022 | 34094 ft | 459 kts | 153° |
| 2026-04-28 18:04 | 49.75063 | 0.75338 | 34088 ft | 459 kts | 153° |
| 2026-04-28 18:04 | 49.70233 | 0.81415 | 34084 ft | 459 kts | 153° |
| 2026-04-28 18:05 | 49.66080 | 0.86614 | 34082 ft | 459 kts | 154° |
| 2026-04-28 18:05 | 49.60309 | 0.93812 | 34080 ft | 459 kts | 154° |
| 2026-04-28 18:06 | 49.55316 | 1.00019 | 34080 ft | 460 kts | 153° |
| 2026-04-28 18:06 | 49.50462 | 1.06034 | 34080 ft | 462 kts | 153° |
| 2026-04-28 18:07 | 49.45493 | 1.12184 | 34131 ft | 463 kts | 153° |
| 2026-04-28 18:07 | 49.40500 | 1.18343 | 34174 ft | 465 kts | 152° |
| 2026-04-28 18:08 | 49.35440 | 1.24570 | 34196 ft | 465 kts | 152° |
| 2026-04-28 18:08 | 49.30358 | 1.30814 | 34207 ft | 465 kts | 152° |
| 2026-04-28 18:09 | 49.25387 | 1.36900 | 34212 ft | 465 kts | 152° |
| 2026-04-28 18:09 | 49.20314 | 1.43094 | 34214 ft | 465 kts | 152° |
| 2026-04-28 18:10 | 49.15427 | 1.49043 | 34215 ft | 465 kts | 152° |
| 2026-04-28 18:10 | 49.10336 | 1.55224 | 34216 ft | 465 kts | 152° |
| 2026-04-28 18:11 | 49.05293 | 1.61312 | 34217 ft | 463 kts | 150° |
| 2026-04-28 18:11 | 49.00236 | 1.67421 | 34215 ft | 460 kts | 150° |
| 2026-04-28 18:12 | 48.95233 | 1.73478 | 34216 ft | 458 kts | 149° |
| 2026-04-28 18:12 | 48.90219 | 1.79533 | 34215 ft | 458 kts | 149° |
| 2026-04-28 18:13 | 48.85255 | 1.85471 | 34215 ft | 458 kts | 149° |
| 2026-04-28 18:13 | 48.80370 | 1.91296 | 34215 ft | 458 kts | 149° |
| 2026-04-28 18:14 | 48.75362 | 1.97262 | 34215 ft | 458 kts | 149° |
| 2026-04-28 18:14 | 48.70341 | 2.03233 | 34215 ft | 458 kts | 149° |
| 2026-04-28 18:15 | 48.65497 | 2.08981 | 34215 ft | 458 kts | 149° |
| 2026-04-28 18:15 | 48.60567 | 2.14813 | 34215 ft | 458 kts | 149° |
| 2026-04-28 18:16 | 48.55737 | 2.20913 | 34215 ft | 463 kts | 143° |
| 2026-04-28 18:16 | 48.51292 | 2.27586 | 34212 ft | 465 kts | 141° |
| 2026-04-28 18:17 | 48.46884 | 2.34318 | 34207 ft | 464 kts | 141° |
| 2026-04-28 18:17 | 48.42328 | 2.41223 | 34200 ft | 464 kts | 141° |
| 2026-04-28 18:18 | 48.37833 | 2.48004 | 34191 ft | 464 kts | 141° |
| 2026-04-28 18:18 | 48.33993 | 2.53769 | 34180 ft | 463 kts | 142° |
| 2026-04-28 18:19 | 48.28298 | 2.61000 | 34164 ft | 455 kts | 151° |
| 2026-04-28 18:19 | 48.22992 | 2.66006 | 34149 ft | 448 kts | 159° |
| 2026-04-28 18:20 | 48.17511 | 2.70467 | 34142 ft | 450 kts | 160° |
| 2026-04-28 18:20 | 48.12209 | 2.74691 | 34138 ft | 451 kts | 160° |
| 2026-04-28 18:21 | 48.06614 | 2.78900 | 34136 ft | 446 kts | 164° |
| 2026-04-28 18:21 | 48.00890 | 2.82553 | 34135 ft | 446 kts | 165° |
| 2026-04-28 18:22 | 47.95143 | 2.86193 | 34098 ft | 446 kts | 165° |
| 2026-04-28 18:22 | 47.90346 | 2.89230 | 34064 ft | 446 kts | 165° |
| 2026-04-28 18:23 | 47.83743 | 2.93393 | 34040 ft | 448 kts | 165° |
| 2026-04-28 18:23 | 47.77978 | 2.97023 | 34026 ft | 449 kts | 165° |
| 2026-04-28 18:24 | 47.74139 | 2.99440 | 34016 ft | 450 kts | 165° |
| 2026-04-28 18:24 | 47.66446 | 3.04274 | 34001 ft | 452 kts | 164° |
| 2026-04-28 18:25 | 47.61063 | 3.07649 | 33995 ft | 453 kts | 164° |
| 2026-04-28 18:26 | 47.52847 | 3.12782 | 33995 ft | 454 kts | 164° |
| 2026-04-28 18:26 | 47.47597 | 3.16052 | 33996 ft | 452 kts | 164° |
| 2026-04-28 18:27 | 47.42339 | 3.19319 | 33997 ft | 452 kts | 164° |
| 2026-04-28 18:27 | 47.38817 | 3.21502 | 33999 ft | 454 kts | 164° |
| 2026-04-28 18:30 | 47.37529 | 3.22299 | 33998 ft | 457 kts | 164° |
| 2026-04-28 18:31 | 47.31554 | 3.25988 | 33998 ft | 469 kts | 164° |
| 2026-04-28 18:31 | 47.25429 | 3.29768 | 33998 ft | 480 kts | 164° |
| 2026-04-28 18:32 | 47.19508 | 3.33418 | 33998 ft | 489 kts | 163° |
| 2026-04-28 18:32 | 47.13548 | 3.37080 | 33998 ft | 497 kts | 163° |
| 2026-04-28 18:33 | 47.07145 | 3.40999 | 33575 ft | 493 kts | 163° |
| 2026-04-28 18:33 | 47.03970 | 3.42945 | 32993 ft | 486 kts | 163° |
| 2026-04-28 18:33 | 47.00935 | 3.44801 | 32440 ft | 481 kts | 163° |
| 2026-04-28 18:33 | 46.97852 | 3.46686 | 31777 ft | 479 kts | 164° |
| 2026-04-28 18:34 | 46.94851 | 3.48508 | 30914 ft | 482 kts | 164° |
| 2026-04-28 18:34 | 46.91741 | 3.50394 | 30098 ft | 484 kts | 163° |
| 2026-04-28 18:34 | 46.88833 | 3.52156 | 29338 ft | 485 kts | 163° |
| 2026-04-28 18:34 | 46.85926 | 3.53911 | 28581 ft | 486 kts | 163° |
| 2026-04-28 18:35 | 46.82899 | 3.55738 | 27785 ft | 487 kts | 163° |
| 2026-04-28 18:35 | 46.79970 | 3.57509 | 27003 ft | 488 kts | 163° |
| 2026-04-28 18:35 | 46.77257 | 3.59152 | 26432 ft | 485 kts | 163° |
| 2026-04-28 18:35 | 46.74301 | 3.60943 | 25838 ft | 480 kts | 162° |
| 2026-04-28 18:36 | 46.71446 | 3.62670 | 25327 ft | 475 kts | 162° |
| 2026-04-28 18:36 | 46.68606 | 3.64333 | 24855 ft | 467 kts | 164° |
| 2026-04-28 18:36 | 46.65883 | 3.65838 | 24414 ft | 461 kts | 165° |
| 2026-04-28 18:36 | 46.63287 | 3.67254 | 24005 ft | 455 kts | 165° |
| 2026-04-28 18:37 | 46.60671 | 3.68678 | 23589 ft | 450 kts | 165° |
| 2026-04-28 18:37 | 46.58129 | 3.70061 | 23184 ft | 445 kts | 165° |
| 2026-04-28 18:37 | 46.55810 | 3.71323 | 22812 ft | 441 kts | 165° |
| 2026-04-28 18:37 | 46.53346 | 3.72664 | 22415 ft | 437 kts | 165° |
| 2026-04-28 18:38 | 46.50884 | 3.74004 | 22014 ft | 433 kts | 165° |
| 2026-04-28 18:38 | 46.48253 | 3.75436 | 21586 ft | 429 kts | 165° |
| 2026-04-28 18:38 | 46.45810 | 3.76764 | 21118 ft | 427 kts | 165° |
| 2026-04-28 18:38 | 46.43285 | 3.78186 | 20450 ft | 429 kts | 163° |
| 2026-04-28 18:39 | 46.41109 | 3.79451 | 19877 ft | 430 kts | 163° |
| 2026-04-28 18:39 | 46.38413 | 3.81141 | 19294 ft | 430 kts | 156° |
| 2026-04-28 18:39 | 46.36091 | 3.83370 | 19026 ft | 425 kts | 143° |
| 2026-04-28 18:39 | 46.34222 | 3.86097 | 19002 ft | 420 kts | 133° |
| 2026-04-28 18:40 | 46.32583 | 3.89099 | 18997 ft | 422 kts | 129° |
| 2026-04-28 18:40 | 46.31049 | 3.92073 | 18996 ft | 423 kts | 129° |
| 2026-04-28 18:40 | 46.29689 | 3.94726 | 18995 ft | 423 kts | 129° |
| 2026-04-28 18:40 | 46.28170 | 3.97668 | 18995 ft | 423 kts | 129° |
| 2026-04-28 18:41 | 46.26454 | 4.00954 | 18995 ft | 423 kts | 129° |
| 2026-04-28 18:41 | 46.24663 | 4.04351 | 18995 ft | 422 kts | 129° |
| 2026-04-28 18:41 | 46.22898 | 4.07679 | 18995 ft | 422 kts | 129° |
| 2026-04-28 18:41 | 46.21108 | 4.11039 | 18995 ft | 422 kts | 130° |
| 2026-04-28 18:42 | 46.19288 | 4.14449 | 18995 ft | 422 kts | 130° |
| 2026-04-28 18:42 | 46.17506 | 4.17781 | 18995 ft | 422 kts | 130° |
| 2026-04-28 18:42 | 46.15709 | 4.21138 | 18995 ft | 422 kts | 130° |
| 2026-04-28 18:42 | 46.13950 | 4.24420 | 18995 ft | 422 kts | 130° |
| 2026-04-28 18:43 | 46.12161 | 4.27752 | 18995 ft | 422 kts | 130° |
| 2026-04-28 18:43 | 46.10427 | 4.30980 | 18995 ft | 422 kts | 130° |
| 2026-04-28 18:43 | 46.08631 | 4.34318 | 18995 ft | 422 kts | 130° |
| 2026-04-28 18:43 | 46.06810 | 4.37699 | 18995 ft | 422 kts | 130° |
| 2026-04-28 18:44 | 46.05002 | 4.41049 | 18996 ft | 422 kts | 130° |
| 2026-04-28 18:44 | 46.01368 | 4.47775 | 18456 ft | 420 kts | 129° |
| 2026-04-28 18:44 | 45.99681 | 4.51084 | 17763 ft | 413 kts | 125° |
| 2026-04-28 18:45 | 45.98124 | 4.54584 | 17054 ft | 409 kts | 123° |
| 2026-04-28 18:45 | 45.96854 | 4.58203 | 16200 ft | 406 kts | 108° |
| 2026-04-28 18:45 | 45.96309 | 4.62202 | 14720 ft | 409 kts | 94° |
| 2026-04-28 18:45 | 45.96102 | 4.66272 | 13203 ft | 410 kts | 92° |
| 2026-04-28 18:46 | 45.95968 | 4.70305 | 11823 ft | 405 kts | 87° |
| 2026-04-28 18:46 | 45.96352 | 4.74254 | 10692 ft | 391 kts | 77° |
| 2026-04-28 18:46 | 45.96991 | 4.78030 | 9601 ft | 380 kts | 75° |
| 2026-04-28 18:46 | 45.97694 | 4.81680 | 8507 ft | 369 kts | 75° |
| 2026-04-28 18:47 | 45.98375 | 4.84985 | 7486 ft | 360 kts | 75° |
| 2026-04-28 18:47 | 45.99108 | 4.88426 | 6392 ft | 351 kts | 75° |
| 2026-04-28 18:47 | 45.99834 | 4.91753 | 5383 ft | 339 kts | 74° |
| 2026-04-28 18:47 | 46.00338 | 4.94937 | 4669 ft | 317 kts | 90° |
| 2026-04-28 18:48 | 46.00073 | 4.97373 | 3975 ft | 305 kts | 112° |
| 2026-04-28 18:48 | 45.99000 | 4.99874 | 3390 ft | 287 kts | 131° |
| 2026-04-28 18:48 | 45.97509 | 5.01734 | 3063 ft | 266 kts | 141° |
| 2026-04-28 18:48 | 45.96099 | 5.03242 | 3014 ft | 237 kts | 142° |
| 2026-04-28 18:49 | 45.94829 | 5.04609 | 3007 ft | 211 kts | 141° |
| 2026-04-28 18:49 | 45.94442 | 5.05032 | 3005 ft | 208 kts | 141° |
| 2026-04-28 18:49 | 45.92433 | 5.07048 | 3007 ft | 208 kts | 159° |
| 2026-04-28 18:49 | 45.91014 | 5.07394 | 3029 ft | 206 kts | 175° |
| 2026-04-28 18:50 | 45.89570 | 5.07449 | 3017 ft | 200 kts | 177° |
| 2026-04-28 18:50 | 45.88282 | 5.07495 | 3019 ft | 189 kts | 176° |
| 2026-04-28 18:50 | 45.88181 | 5.07500 | 3020 ft | 189 kts | 176° |
| 2026-04-28 18:50 | 45.86630 | 5.07615 | 3022 ft | 191 kts | 174° |
| 2026-04-28 18:51 | 45.85291 | 5.07748 | 2918 ft | 188 kts | 174° |
| 2026-04-28 18:51 | 45.84052 | 5.07887 | 2819 ft | 169 kts | 173° |
| 2026-04-28 18:51 | 45.82907 | 5.08028 | 2638 ft | 158 kts | 172° |
| 2026-04-28 18:51 | 45.81824 | 5.08165 | 2426 ft | 151 kts | 173° |
| 2026-04-28 18:52 | 45.80844 | 5.08287 | 2223 ft | 142 kts | 172° |
| 2026-04-28 18:52 | 45.79843 | 5.08413 | 2035 ft | 143 kts | 175° |
| 2026-04-28 18:52 | 45.78919 | 5.08527 | 1860 ft | 142 kts | 175° |
| 2026-04-28 18:52 | 45.77916 | 5.08649 | 1670 ft | 141 kts | 175° |
| 2026-04-28 18:53 | 45.76973 | 5.08764 | 1491 ft | 141 kts | 175° |
| 2026-04-28 18:53 | 45.75991 | 5.08883 | 1304 ft | 140 kts | 175° |
| 2026-04-28 18:53 | 45.75011 | 5.09001 | 1116 ft | 139 kts | 175° |
| 2026-04-28 18:53 | 45.74025 | 5.09121 | 928 ft | 139 kts | 175° |
| 2026-04-28 18:54 | 45.73076 | 5.09237 | 797 ft | 128 kts | 175° |
| 2026-04-28 18:54 | 45.72367 | 5.09324 | 808 ft | 78 kts | 175° |
| 2026-04-28 18:54 | 45.71951 | 5.09363 | 817 ft | 47 kts | 179° |
| 2026-04-28 18:54 | 45.71708 | 5.09300 | 817 ft | 15 kts | 207° |
| 2026-04-28 18:55 | 45.71642 | 5.09208 | 816 ft | 14 kts | 255° |
| 2026-04-28 18:55 | 45.71633 | 5.09130 | 815 ft | 10 kts | 264° |
| 2026-04-28 18:55 | 45.71621 | 5.08956 | 812 ft | 14 kts | 264° |
| 2026-04-28 18:55 | 45.71611 | 5.08782 | 809 ft | 19 kts | 265° |
| 2026-04-28 18:56 | 45.71600 | 5.08583 | 805 ft | 16 kts | 262° |
| 2026-04-28 18:56 | 45.71519 | 5.08508 | 805 ft | 16 kts | 178° |
| 2026-04-28 18:56 | 45.71428 | 5.08493 | 807 ft | 13 kts | 219° |
| 2026-04-28 18:56 | 45.71418 | 5.08413 | 806 ft | 8 kts | 323° |
| 2026-04-28 18:57 | 45.71481 | 5.08401 | 804 ft | 10 kts | 355° |
| 2026-04-28 18:57 | 45.71498 | 5.08400 | 804 ft | 0 kts | 355° |